Airfield :
LOGIN :

Register | Disclaimer

   EN    FR    IT 

 










Legend :    VFR   Marginal VFR   IFR   Intensive IFR   Very Intensive IFR
Visi :
Ceiling :
>= 8 km
>= 3000ft
5 to 8 km
1000 to 3000 ft
1500m to 5 km
500 to 1000 ft
800 to 1500m
200 to 500 ft
< 800m
< 200 ft
Symbols :   Thunderstorms  Fog  Heavy snow  Heavy precipitations  Wind > 20 kt
SIGMETs :     Misc.  Thunderstorms  Icing  Turbulence  Mountain Waves  Volcanic Ashes






- Airport Elevation : 36 ft
- IATA code : GJL


DAAV - Jijel Ferhat Abbas

CURRENT METAR :
  • 152100Z 19003KT 9999 SCT016 BKN033 11/09 Q1009

EXPIRED METARs :
  • 152000Z 14003KT 9999 SCT016 BKN033 12/10 Q1008
  • 151900Z 20003KT 9999 SCT016 BKN033 13/10 Q1008

TAF TAF DAAV
Valid from the 15 at 18:00 until the 16 at 18:00 UTC


151700Z 1518/1618 20008KT 9999 SCT016 SCT033
TEMPO 1518/1606 FEW023TCU FEW026CB
PROB30
TEMPO 1518/1522 5000 -TSRA FEW023CB
PROB40
TEMPO 1606/1618 5000 -TSRA FEW023CB
PROB30
TEMPO 1610/1618 3000 TSGRRA SCT020CB



MET'MAP, your aeronautical weather chart ! - Copyright ORBIFLY December 2007 - Disclaimer

ORBIFLY MET'MAP TEAM :

Programming & Development : Alexandra Zaïnal
Concept & Development : Baudouin d'Aumeries
Co-Development & Prog : Marc-Olivier Méhu
Technical & hardware support : Manuel Goepfert

Contact : metmap@orbifly.com




SOURCES & CREDITS :

   NOAA